Montreal International (Mirabel) Airport

CYMX · Quebec, Canada

Storia di METAR CYMX · Montreal International (Mirabel) Airport

Di seguito sono riportati i METAR degli ultimi giorni. Seleziona un anno per sfogliare i METAR più vecchi, dall'anno 2007 in poi.

27 febbraio 2024

Tempo Codice Tempo meteorologico Temp. Vista Base nuvolosa Vento METAR/SPECI
11:00
V
3 °C 45 mi - 030° 030° 4 kt METAR CYMX 271600Z 03004KT 350V110 45SM SCT250 03/M04 A2983 RMK CI3 SLP106
10:00
V
2 °C 45 mi - 050° 050° 4 kt METAR CYMX 271500Z 05004KT 350V080 45SM SCT250 02/M06 A2984 RMK CI3 SLP112
09:00
V
-1 °C 45 mi - 030° 030° 4 kt METAR CYMX 271400Z 03004KT 350V070 45SM FEW130 FEW250 M01/M07 A2985 RMK AC1CI2 AC TR SLP115
08:00
V
-2 °C 45 mi - 040° 040° 4 kt METAR CYMX 271300Z 04004KT 320V090 45SM FEW130 FEW250 M02/M08 A2986 RMK AC1CI1 SLP117
07:00
V
-4 °C 45 mi 25.000 ft 360° 360° 0 kt METAR CYMX 271200Z 00000KT 45SM SCT140 BKN250 M04/M09 A2986 RMK AC3CI2 SLP119
06:00
V
-4 °C 25 mi 25.000 ft 050° 050° 4 kt METAR CYMX 271100Z 05004KT 010V090 25SM FEW100 BKN250 M04/M09 A2987 RMK AC2CI3 SLP121
05:00
V
-4 °C 25 mi - 050° 050° 6 kt METAR CYMX 271000Z 05006KT 330V110 25SM FEW150 FEW250 M04/M09 A2989 RMK AC1CI1 SLP127
04:00
V
-4 °C 25 mi - 050° 050° 5 kt METAR CYMX 270900Z 05005KT 25SM FEW080 M04/M09 A2991 RMK AC1 SLP136
03:00
V
-3 °C 25 mi - 060° 060° 4 kt METAR CYMX 270800Z 06004KT 010V090 25SM SCT080 M03/M09 A2994 RMK AC3 SLP144
02:00
V
-2 °C 25 mi 8.800 ft 060° 060° 4 kt METAR CYMX 270700Z 06004KT 360V110 25SM BKN088 M02/M09 A2996 RMK AC6 SLP152
01:00
V
-3 °C 25 mi 11.000 ft 050° 050° 4 kt METAR CYMX 270600Z 05004KT 25SM BKN110 M03/M08 A2997 RMK AS6 SLP154
00:00
V
-2 °C 25 mi 13.000 ft Var Var 2 kt METAR CYMX 270500Z VRB02KT 25SM BKN130 M02/M08 A2998 RMK AS5 SLP159

26 febbraio 2024

Tempo Codice Tempo meteorologico Temp. Vista Base nuvolosa Vento METAR/SPECI
23:00
V
-3 °C 25 mi - Var Var 2 kt METAR CYMX 270400Z VRB02KT 25SM SCT120 M03/M07 A3000 RMK AS4 SLP164
22:00
V
-3 °C 25 mi 14.000 ft 070° 070° 3 kt METAR CYMX 270300Z 07003KT 25SM BKN140 M03/M08 A2999 RMK AS5 SLP162
21:00
V
-2 °C 25 mi - Var Var 2 kt METAR CYMX 270200Z VRB02KT 25SM FEW250 M02/M07 A3001 RMK CI2 SLP168
20:00
V
-2 °C 25 mi - Var Var 2 kt METAR CYMX 270100Z VRB02KT 25SM FEW250 M02/M08 A3000 RMK CI2 SLP167
19:00
V
0 °C 25 mi - 230° 230° 3 kt METAR CYMX 270000Z 23003KT 210V280 25SM FEW250 00/M08 A3001 RMK CI2 SLP169
18:00
V
2 °C 25 mi 25.000 ft 220° 220° 4 kt METAR CYMX 262300Z 22004KT 200V280 25SM BKN250 02/M09 A2999 RMK CI5 SLP162
17:00
V
3 °C 25 mi 25.000 ft 240° 240° 6 kt METAR CYMX 262200Z 24006KT 200V260 25SM BKN250 03/M08 A2996 RMK CI5 SLP150
16:00
V
4 °C 25 mi - 280° 280° 9 - 15 kt METAR CYMX 262100Z 28009G15KT 230V300 25SM FEW060 SCT250 04/M09 A2994 RMK SC1CI3 SC TR SLP144
15:00
V
5 °C 25 mi - 260° 260° 7 kt METAR CYMX 262000Z 26007KT 240V310 25SM FEW040 FEW060 SCT210 05/M11 A2991 RMK CU1SC1CI1 SLP135
14:00
V
4 °C 25 mi - 250° 250° 10 - 21 kt METAR CYMX 261900Z 25010G21KT 200V310 25SM FEW035 SCT150 SCT250 04/M06 A2990 RMK CU2AC1CI1 SLP131
13:00
V
4 °C 25 mi - 240° 240° 9 - 16 kt METAR CYMX 261800Z 24009G16KT 210V270 25SM FEW030 SCT110 04/M04 A2988 RMK CU2AC1 SLP125
12:00
V
4 °C 25 mi - 230° 230° 7 kt METAR CYMX 261700Z 23007KT 190V270 25SM FEW030 SCT090 SCT250 04/M03 A2986 RMK CU2AC1CI1 SLP119
11:00
V
3 °C 25 mi - 240° 240° 8 kt METAR CYMX 261600Z 24008KT 200V270 25SM FEW035 SCT090 SCT250 03/M02 A2986 RMK CU1AC2CI1 SLP117
10:00
V
2 °C 25 mi 25.000 ft 220° 220° 6 kt METAR CYMX 261500Z 22006KT 200V270 25SM FEW010 FEW035 SCT100 BKN250 02/M02 A2985 RMK CF1CU2AC2CI1 CF TR SLP115
09:00
V
0 °C 10 mi 9.000 ft 230° 230° 6 kt METAR CYMX 261400Z 23006KT 10SM FEW008 FEW035 BKN090 00/M02 A2984 RMK CF1SC1AC4 CF TR SLP111
08:33
V
0 °C 10 mi 9.000 ft 230° 230° 7 kt METAR CYMX 261333Z 23007KT 10SM SCT035 BKN090 M00/M02 A2983 RMK SC3AC3 SLP109
08:00
V
0 °C 5 mi 4.000 ft 220° 220° 5 kt METAR CYMX 261300Z 22005KT 5SM -SN OVC040 M00/M02 A2983 RMK SC8 SLP106
07:49
V
0 °C 10 mi 3.300 ft 230° 230° 5 kt METAR CYMX 261249Z 23005KT 10SM -SN OVC033 M00/M02 A2983 RMK SC8 SLP107
07:00
V
-2 °C 25 mi 6.000 ft 270° 270° 3 kt METAR CYMX 261200Z 27003KT 240V320 25SM FEW040 BKN060 BKN100 M02/M03 A2980 RMK SC2SC3AC1 SLP099
06:00
V
-1 °C 25 mi 4.000 ft 230° 230° 5 kt METAR CYMX 261100Z 23005KT 25SM BKN040 BKN100 M01/M02 A2979 RMK SC5AC1 AC TR SLP095
05:50
V
-1 °C 10 mi 3.800 ft 230° 230° 5 kt METAR CYMX 261050Z 23005KT 200V260 10SM BKN038 M01/M02 A2979 RMK SC7 SLP095
05:00
M
-2 °C 8 mi 2.500 ft Var Var 2 kt METAR CYMX 261000Z VRB02KT 8SM -SN OVC025 M02/M03 A2979 RMK SC8 SLP093
04:41
M
-2 °C 5 mi 2.500 ft 270° 270° 3 kt METAR CYMX 260941Z 27003KT 250V330 5SM -SN OVC025 M02/M03 A2979 RMK SC8 SLP095
04:00
V
-2 °C 25 mi 5.600 ft 360° 360° 0 kt METAR CYMX 260900Z 00000KT 25SM BKN056 M02/M03 A2977 RMK SC7 SLP088
03:00
V
-2 °C 25 mi 4.400 ft Var Var 2 kt METAR CYMX 260800Z VRB02KT 25SM BKN044 M02/M03 A2977 RMK SC7 SLP089
02:00
V
-3 °C 25 mi 5.000 ft 360° 360° 0 kt METAR CYMX 260700Z 00000KT 25SM BKN050 M03/M04 A2979 RMK SC7 SLP095
01:00
M
-2 °C 25 mi 2.800 ft 360° 360° 0 kt METAR CYMX 260600Z 00000KT 25SM BKN028 M02/M04 A2979 RMK SC6 SLP094
00:00
V
-2 °C 25 mi 6.000 ft 180° 180° 3 kt METAR CYMX 260500Z 18003KT 25SM BKN060 BKN140 BKN200 M02/M03 A2980 RMK SC5AC1CI1 CI TR SLP097

25 febbraio 2024

Tempo Codice Tempo meteorologico Temp. Vista Base nuvolosa Vento METAR/SPECI
23:26
V
-2 °C 15 mi 7.100 ft Var Var 2 kt METAR CYMX 260426Z VRB02KT 15SM SCT022 BKN071 M02/M03 A2980 RMK SC3AC3 SLP100
23:00
M
-1 °C 3 mi 2.200 ft 200° 200° 5 kt METAR CYMX 260400Z 20005KT 3SM -SN OVC022 M01/M03 A2982 RMK SC8 SLP105
23:06
I
-1 °C 3 mi 2.200 ft 190° 190° 5 kt METAR CYMX 260406Z 19005KT 3SM -SN OVC022 M01/M03 A2982 RMK SC8 SLP104
22:14
M
-1 °C 5 mi 1.600 ft 240° 240° 5 kt METAR CYMX 260314Z 24005KT 190V290 5SM -SN OVC016 M01/M08 A2985 RMK SC8 SLP115
22:00
M
-1 °C 25 mi 2.900 ft Var Var 2 kt METAR CYMX 260300Z VRB02KT 25SM BKN029 M01/M08 A2984 RMK SC7 SLP113
21:00
V
-2 °C 25 mi 9.800 ft 360° 360° 0 kt METAR CYMX 260200Z 00000KT 25SM BKN098 M02/M08 A2981 RMK AC6 SLP104
20:00
V
-2 °C 25 mi 9.000 ft 160° 160° 4 kt METAR CYMX 260100Z 16004KT 25SM FEW063 BKN090 M02/M08 A2982 RMK SC2AC3 SLP106
19:00
V
-1 °C 25 mi 10.000 ft 170° 170° 4 kt METAR CYMX 260000Z 17004KT 130V210 25SM FEW063 BKN100 M01/M09 A2984 RMK SC2AC4 SLP112
18:00
V
-1 °C 25 mi 11.000 ft 160° 160° 3 kt METAR CYMX 252300Z 16003KT 25SM FEW030 BKN110 M01/M08 A2984 RMK SC1AC6 SLP113
17:00
V
0 °C 45 mi 11.000 ft 160° 160° 3 kt METAR CYMX 252200Z 16003KT 110V180 45SM FEW030 BKN110 BKN220 M00/M08 A2985 RMK SC1AC4CC1 SLP115
16:00
V
0 °C 25 mi 11.000 ft 150° 150° 4 kt METAR CYMX 252100Z 15004KT 110V180 25SM SCT035 BKN110 BKN250 00/M08 A2986 RMK SC3AC2CI1 SLP119
15:00
V
1 °C 25 mi 25.000 ft 240° 240° 4 kt METAR CYMX 252000Z 24004KT 170V290 25SM FEW035 SCT100 BKN250 01/M08 A2988 RMK SC2AC1CI3 SLP125
14:00
V
-1 °C 25 mi 21.000 ft Var Var 2 kt METAR CYMX 251900Z VRB02KT 25SM SCT035 BKN210 M01/M09 A2990 RMK SC4CI3 SLP132
13:00
V
-3 °C 25 mi 3.500 ft 070° 070° 3 kt METAR CYMX 251800Z 07003KT 010V090 25SM BKN035 BKN210 M03/M11 A2993 RMK SC5CS2 SLP144
12:00
V
-6 °C 25 mi 25.000 ft 020° 020° 3 kt METAR CYMX 251700Z 02003KT 340V060 25SM FEW030 FEW120 BKN250 M06/M13 A2996 RMK SC1AC1CI4 SLP155
11:00
V
-8 °C 25 mi 25.000 ft Var Var 2 kt METAR CYMX 251600Z VRB02KT 25SM FEW050 FEW130 BKN250 M08/M15 A2999 RMK SC1AC1CI5 AC TR SLP165
10:00
V
-11 °C 45 mi - 060° 060° 2 kt METAR CYMX 251500Z 06002KT 45SM FEW180 SCT250 M11/M17 A3001 RMK AC2CI2 SLP171
09:00
V
-14 °C 45 mi - 360° 360° 0 kt METAR CYMX 251400Z 00000KT 45SM FEW250 M14/M20 A3002 RMK CI1 SLP177
08:00
V
-16 °C 45 mi - 010° 010° 2 kt METAR CYMX 251300Z 01002KT 45SM FEW250 M16/M21 A3004 RMK CI1 SLP181
07:00
V
-19 °C 25 mi - 360° 360° 0 kt METAR CYMX 251200Z 00000KT 25SM FEW120 M19/M22 A3004 RMK AC2 SLP181
06:00
V
-18 °C 25 mi - 340° 340° 2 kt METAR CYMX 251100Z 34002KT 25SM SCT120 M18/M21 A3002 RMK AC3 SLP177
05:00
V
-19 °C 25 mi - 090° 090° 3 kt METAR CYMX 251000Z 09003KT 25SM FEW120 M19/M22 A3003 RMK AC1 AC TR SLP179
04:00
V
-18 °C 25 mi - 300° 300° 2 kt METAR CYMX 250900Z 30002KT 25SM SKC M18/M22 A3003 RMK SLP179
03:00
V
-18 °C 25 mi - 270° 270° 2 kt METAR CYMX 250800Z 27002KT 25SM SKC M18/M22 A3004 RMK SLP181
02:00
V
-18 °C 25 mi - Var Var 2 kt METAR CYMX 250700Z VRB02KT 25SM SKC M18/M22 A3003 RMK SLP179
01:00
V
-16 °C 25 mi - 230° 230° 3 kt METAR CYMX 250600Z 23003KT 25SM SKC M16/M22 A3002 RMK SLP175